Time;durP1;ratioP1;P1;durP2;ratioP2;P2;SDS_P1;SDS_P2;PMS_P1;PMS_P2;Temp;Humidity;BMP_temperature;BMP_pressure;BME280_temperature;BME280_humidity;BME280_pressure;Samples;Min_cycle;Max_cycle;Signal;HPM_P1;HPM_P2
2022/02/02 00:02:19;;;;;;;17.73;9.82;;;;;;;;;;5074683;28;20389;-68
2022/02/02 00:04:49;;;;;;;19.00;9.82;;;;;;;;;;5074346;28;20024;-68
2022/02/02 00:07:36;;;;;;;16.58;9.55;;;;;;;;;;5074626;28;20036;-68
2022/02/02 00:10:19;;;;;;;17.75;9.52;;;;;;;;;;5074585;28;20020;-68
2022/02/02 00:12:49;;;;;;;20.85;10.60;;;;;;;;;;5074138;28;20021;-69
2022/02/02 00:18:02;;;;;;;17.00;9.70;;;;;;;;;;5073986;28;20032;-69
2022/02/02 00:20:34;;;;;;;17.05;10.73;;;;;;;;;;5074236;28;20052;-69
2022/02/02 00:23:03;;;;;;;17.38;10.18;;;;;;;;;;5074360;28;20028;-68
2022/02/02 00:25:34;;;;;;;17.88;8.95;;;;;;;;;;5073820;28;20519;-68
2022/02/02 00:28:03;;;;;;;18.10;9.32;;;;;;;;;;5074340;28;20029;-68
2022/02/02 00:30:34;;;;;;;18.10;9.63;;;;;;;;;;5056241;28;20021;-68
2022/02/02 00:36:08;;;;;;;18.92;9.95;;;;;;;;;;5050921;28;20032;-68
2022/02/02 00:38:34;;;;;;;18.50;9.77;;;;;;;;;;5074326;28;20044;-69
2022/02/02 00:41:02;;;;;;;19.58;11.05;;;;;;;;;;5055669;28;20369;-69
2022/02/02 00:43:29;;;;;;;17.65;10.65;;;;;;;;;;5074009;28;20437;-69
2022/02/02 00:45:55;;;;;;;18.83;10.73;;;;;;;;;;5073810;28;20049;-69
2022/02/02 00:48:26;;;;;;;18.27;9.35;;;;;;;;;;5073856;28;20112;-69
2022/02/02 00:50:52;;;;;;;19.13;10.38;;;;;;;;;;5074435;28;20020;-69
2022/02/02 00:53:19;;;;;;;20.80;11.35;;;;;;;;;;5073622;28;20469;-69
2022/02/02 00:55:45;;;;;;;18.48;9.35;;;;;;;;;;5073747;28;20025;-69
2022/02/02 00:58:12;;;;;;;17.80;9.18;;;;;;;;;;5073730;28;20028;-69
2022/02/02 01:00:38;;;;;;;17.05;9.27;;;;;;;;;;5073486;28;20525;-69
2022/02/02 01:03:05;;;;;;;18.70;9.50;;;;;;;;;;5055646;28;20481;-69
2022/02/02 01:05:31;;;;;;;17.80;9.88;;;;;;;;;;5073674;28;20147;-69
2022/02/02 01:10:58;;;;;;;20.15;10.57;;;;;;;;;;5073607;28;20028;-69
2022/02/02 01:14:15;;;;;;;16.33;9.82;;;;;;;;;;5055656;28;20085;-69
2022/02/02 01:19:26;;;;;;;18.95;10.00;;;;;;;;;;5073390;28;20054;-68
2022/02/02 01:29:59;;;;;;;19.70;11.02;;;;;;;;;;5073330;28;20027;-70
2022/02/02 01:32:25;;;;;;;20.90;10.68;;;;;;;;;;5073291;28;20086;-69
2022/02/02 01:34:53;;;;;;;19.25;9.45;;;;;;;;;;5055364;28;20020;-69
2022/02/02 01:37:20;;;;;;;18.88;9.20;;;;;;;;;;5072941;28;20548;-69
2022/02/02 01:39:51;;;;;;;18.45;9.90;;;;;;;;;;5073651;28;20029;-69
2022/02/02 01:42:19;;;;;;;19.75;9.32;;;;;;;;;;5054824;28;20088;-69
2022/02/02 01:45:00;;;;;;;20.70;9.88;;;;;;;;;;5055269;28;20465;-69
2022/02/02 01:47:34;;;;;;;16.42;9.38;;;;;;;;;;5073564;28;20103;-69
2022/02/02 01:50:15;;;;;;;18.92;10.10;;;;;;;;;;5073078;28;20377;-69
2022/02/02 01:53:06;;;;;;;18.25;8.98;;;;;;;;;;5073270;28;20431;-69
2022/02/02 01:55:38;;;;;;;17.40;9.45;;;;;;;;;;5073204;28;20101;-69
2022/02/02 02:00:40;;;;;;;19.80;10.13;;;;;;;;;;5073031;28;20078;-69
2022/02/02 02:03:07;;;;;;;16.83;9.50;;;;;;;;;;5072992;28;20038;-69
2022/02/02 02:05:33;;;;;;;18.35;10.25;;;;;;;;;;5072655;28;20017;-70
2022/02/02 02:07:59;;;;;;;16.02;9.02;;;;;;;;;;5072972;28;20024;-69
2022/02/02 02:10:25;;;;;;;18.17;9.10;;;;;;;;;;5054620;28;20021;-69
2022/02/02 02:13:06;;;;;;;17.92;9.05;;;;;;;;;;5072959;28;20024;-69
2022/02/02 02:15:32;;;;;;;18.85;9.57;;;;;;;;;;5073185;28;20016;-69
2022/02/02 02:18:00;;;;;;;17.23;9.07;;;;;;;;;;5072692;28;20551;-69
2022/02/02 02:20:26;;;;;;;16.63;8.95;;;;;;;;;;5075381;28;20041;-69
2022/02/02 02:22:53;;;;;;;16.98;8.60;;;;;;;;;;5076653;28;20434;-69
2022/02/02 02:25:20;;;;;;;15.27;8.45;;;;;;;;;;5076417;28;20021;-69
2022/02/02 02:27:46;;;;;;;19.38;9.30;;;;;;;;;;5076573;28;20154;-69
2022/02/02 02:30:26;;;;;;;18.63;9.02;;;;;;;;;;5076474;28;20035;-69
2022/02/02 02:33:25;;;;;;;18.98;10.50;;;;;;;;;;5076275;28;20105;-69
2022/02/02 02:36:19;;;;;;;14.48;7.68;;;;;;;;;;5076233;28;20040;-69
2022/02/02 03:00:40;;;;;;;15.98;8.80;;;;;;;;;;5075480;28;20024;-69
2022/02/02 03:57:30;;;;;;;16.15;8.82;;;;;;;;;;5074692;28;20040;-69
2022/02/02 04:00:25;;;;;;;17.42;9.32;;;;;;;;;;5057010;28;20524;-69
2022/02/02 04:08:25;;;;;;;20.10;9.07;;;;;;;;;;5074737;28;20098;-69
2022/02/02 04:10:43;;;;;;;17.70;8.88;;;;;;;;;;5073750;28;20396;-69
2022/02/02 04:38:11;;;;;;;20.65;10.68;;;;;;;;;;5056699;28;20027;-69
2022/02/02 04:51:49;;;;;;;26.27;11.40;;;;;;;;;;5074224;28;20035;-69
2022/02/02 04:54:26;;;;;;;22.45;12.25;;;;;;;;;;5073527;28;20077;-70
2022/02/02 04:57:53;;;;;;;18.75;10.55;;;;;;;;;;5055899;28;20027;-69
2022/02/02 05:03:07;;;;;;;18.63;10.40;;;;;;;;;;5073634;28;20393;-68
2022/02/02 05:08:05;;;;;;;19.52;9.85;;;;;;;;;;5073531;28;20054;-68
2022/02/02 05:10:52;;;;;;;18.40;11.27;;;;;;;;;;5073944;28;20012;-68
2022/02/02 05:16:20;;;;;;;13.95;8.60;;;;;;;;;;5073545;28;20017;-68
2022/02/02 05:43:49;;;;;;;20.88;11.23;;;;;;;;;;5072877;28;20048;-68
2022/02/02 05:54:18;;;;;;;24.38;13.65;;;;;;;;;;5066515;28;20032;-69
2022/02/02 05:56:49;;;;;;;23.25;12.65;;;;;;;;;;5076838;28;20396;-67
2022/02/02 05:59:19;;;;;;;29.20;14.32;;;;;;;;;;5077222;28;20462;-67
2022/02/02 06:01:51;;;;;;;30.67;14.80;;;;;;;;;;5072925;28;20041;-68
2022/02/02 06:04:21;;;;;;;24.85;13.05;;;;;;;;;;5055321;28;20078;-68
2022/02/02 06:06:48;;;;;;;24.38;12.05;;;;;;;;;;5055515;28;20078;-67
2022/02/02 06:09:14;;;;;;;22.60;12.38;;;;;;;;;;5055860;28;20025;-68
2022/02/02 06:11:42;;;;;;;18.90;11.40;;;;;;;;;;5056142;28;20028;-68
2022/02/02 06:14:08;;;;;;;23.80;11.68;;;;;;;;;;5055634;28;20029;-67
2022/02/02 06:16:36;;;;;;;20.90;9.90;;;;;;;;;;5056281;28;20029;-67
2022/02/02 06:19:03;;;;;;;21.10;12.90;;;;;;;;;;5073291;28;20016;-70
2022/02/02 06:21:33;;;;;;;23.58;13.90;;;;;;;;;;5045124;28;20036;-69
2022/02/02 06:24:13;;;;;;;24.42;12.93;;;;;;;;;;5063491;28;20488;-67
2022/02/02 06:26:41;;;;;;;24.50;12.70;;;;;;;;;;5052091;28;20033;-69
2022/02/02 06:29:08;;;;;;;23.35;14.77;;;;;;;;;;5060657;28;20013;-69
2022/02/02 06:31:36;;;;;;;23.05;13.02;;;;;;;;;;5057343;28;20020;-69
2022/02/02 06:34:04;;;;;;;26.67;15.35;;;;;;;;;;5073606;28;20021;-67
2022/02/02 06:36:31;;;;;;;22.38;13.23;;;;;;;;;;5065430;28;20031;-68
2022/02/02 06:38:58;;;;;;;20.42;12.65;;;;;;;;;;5094418;28;20055;-66
2022/02/02 06:41:25;;;;;;;20.15;12.15;;;;;;;;;;5095386;28;20028;-67
2022/02/02 06:43:54;;;;;;;24.65;13.70;;;;;;;;;;5095358;28;20052;-69
2022/02/02 06:46:22;;;;;;;24.10;13.10;;;;;;;;;;5095066;28;20058;-68
2022/02/02 06:48:49;;;;;;;21.23;12.07;;;;;;;;;;5095698;28;20016;-68
2022/02/02 06:51:23;;;;;;;27.70;14.30;;;;;;;;;;5096044;28;20027;-67
2022/02/02 06:54:01;;;;;;;24.17;14.02;;;;;;;;;;5095592;28;20517;-70
2022/02/02 06:56:34;;;;;;;24.70;12.90;;;;;;;;;;5095780;28;20024;-71
2022/02/02 06:59:24;;;;;;;23.35;12.65;;;;;;;;;;5089332;28;20020;-71
2022/02/02 07:05:19;;;;;;;21.95;11.70;;;;;;;;;;5074999;28;20051;-70
2022/02/02 07:12:51;;;;;;;25.42;13.93;;;;;;;;;;5075105;28;20032;-68
2022/02/02 07:18:12;;;;;;;23.92;12.90;;;;;;;;;;5087711;28;20032;-69
2022/02/02 07:20:57;;;;;;;27.00;12.48;;;;;;;;;;5084922;28;20056;-69
2022/02/02 07:28:37;;;;;;;20.97;12.63;;;;;;;;;;5073235;28;20473;-67
2022/02/02 07:31:35;;;;;;;21.63;11.40;;;;;;;;;;5073783;28;20056;-67
2022/02/02 07:34:23;;;;;;;24.50;11.38;;;;;;;;;;5053754;28;20501;-67
2022/02/02 07:36:53;;;;;;;24.52;13.68;;;;;;;;;;5063784;28;20170;-67
2022/02/02 07:39:20;;;;;;;22.17;12.48;;;;;;;;;;5073500;28;20031;-68
2022/02/02 07:41:48;;;;;;;19.48;11.43;;;;;;;;;;5073152;28;20039;-67
2022/02/02 07:44:19;;;;;;;25.15;9.95;;;;;;;;;;5074020;28;20025;-68
2022/02/02 07:46:47;;;;;;;24.45;11.40;;;;;;;;;;5043685;28;20371;-69
2022/02/02 07:49:16;;;;;;;19.20;11.10;;;;;;;;;;5053491;28;20039;-67
2022/02/02 07:51:42;;;;;;;21.35;12.27;;;;;;;;;;5054121;28;20405;-68
2022/02/02 07:54:16;;;;;;;17.75;11.20;;;;;;;;;;5053927;28;20025;-70
2022/02/02 07:56:45;;;;;;;19.85;10.45;;;;;;;;;;5061776;28;20026;-68
2022/02/02 08:01:44;;;;;;;27.35;14.10;;;;;;;;;;5073714;28;20039;-70
2022/02/02 08:04:11;;;;;;;32.95;17.10;;;;;;;;;;5055172;28;20085;-70
2022/02/02 08:06:40;;;;;;;22.90;10.50;;;;;;;;;;5069726;28;20028;-68
2022/02/02 08:09:09;;;;;;;19.50;10.60;;;;;;;;;;5072906;28;20078;-68
2022/02/02 08:11:38;;;;;;;20.65;10.82;;;;;;;;;;5054399;28;20383;-72
2022/02/02 08:14:04;;;;;;;20.83;11.18;;;;;;;;;;5054272;28;20029;-67
2022/02/02 08:16:31;;;;;;;16.77;10.77;;;;;;;;;;5067986;28;20488;-67
2022/02/02 08:18:58;;;;;;;18.15;10.50;;;;;;;;;;5072226;28;20031;-68
2022/02/02 08:21:24;;;;;;;20.90;11.43;;;;;;;;;;5087334;28;20090;-69
2022/02/02 08:23:50;;;;;;;22.23;12.25;;;;;;;;;;5075875;28;20028;-68
2022/02/02 08:26:17;;;;;;;19.00;9.85;;;;;;;;;;5072418;28;20625;-68
2022/02/02 08:28:44;;;;;;;21.92;10.60;;;;;;;;;;5071889;28;20389;-66
2022/02/02 08:31:11;;;;;;;19.77;12.07;;;;;;;;;;5071246;28;20060;-67
2022/02/02 08:33:44;;;;;;;23.40;12.35;;;;;;;;;;5072914;28;20104;-67
2022/02/02 08:36:17;;;;;;;24.00;11.50;;;;;;;;;;5072882;28;20047;-67
2022/02/02 08:41:25;;;;;;;31.83;13.43;;;;;;;;;;5072176;28;20385;-67
2022/02/02 08:44:07;;;;;;;23.23;13.93;;;;;;;;;;5073010;28;20028;-69
2022/02/02 08:46:36;;;;;;;23.30;13.70;;;;;;;;;;5085221;28;20020;-70
2022/02/02 08:49:06;;;;;;;19.55;12.65;;;;;;;;;;5093091;28;20099;-70
2022/02/02 08:51:38;;;;;;;48.08;21.00;;;;;;;;;;5107333;28;20016;-69
2022/02/02 08:54:16;;;;;;;34.42;18.70;;;;;;;;;;5112722;28;20027;-69
2022/02/02 09:02:10;;;;;;;27.85;16.50;;;;;;;;;;5113372;28;20077;-70
2022/02/02 09:07:21;;;;;;;32.15;15.25;;;;;;;;;;5079176;28;20097;-67
2022/02/02 09:09:57;;;;;;;28.48;14.45;;;;;;;;;;5071186;28;20031;-67
2022/02/02 09:23:31;;;;;;;29.85;13.50;;;;;;;;;;5064435;28;20047;-69
2022/02/02 09:36:28;;;;;;;28.00;15.77;;;;;;;;;;5065637;28;20044;-69
2022/02/02 09:38:57;;;;;;;29.33;14.55;;;;;;;;;;5051283;28;20021;-71
2022/02/02 09:41:39;;;;;;;34.47;18.30;;;;;;;;;;5050648;28;20170;-69
2022/02/02 09:44:08;;;;;;;28.15;15.57;;;;;;;;;;5045461;28;20388;-70
2022/02/02 09:46:57;;;;;;;28.08;15.35;;;;;;;;;;5064321;28;20052;-71
2022/02/02 09:52:05;;;;;;;35.90;16.40;;;;;;;;;;5071711;28;20028;-69
2022/02/02 09:54:39;;;;;;;40.67;18.63;;;;;;;;;;5065052;28;20021;-70
2022/02/02 10:02:34;;;;;;;36.72;16.85;;;;;;;;;;5067698;28;20040;-68
2022/02/02 10:13:25;;;;;;;33.20;18.15;;;;;;;;;;5069768;28;20035;-66
2022/02/02 10:15:56;;;;;;;37.70;18.30;;;;;;;;;;5043494;28;20020;-66
2022/02/02 10:18:34;;;;;;;28.33;15.48;;;;;;;;;;5058319;28;20033;-68
2022/02/02 10:21:00;;;;;;;31.42;16.65;;;;;;;;;;5070746;28;20076;-69
2022/02/02 10:23:34;;;;;;;34.53;20.77;;;;;;;;;;5049764;28;20025;-69
2022/02/02 10:26:13;;;;;;;27.77;14.98;;;;;;;;;;5056664;28;20462;-68
2022/02/02 10:28:40;;;;;;;31.05;15.63;;;;;;;;;;5049947;28;20033;-68
2022/02/02 10:31:07;;;;;;;23.33;15.20;;;;;;;;;;5049615;28;20033;-69
2022/02/02 10:33:34;;;;;;;25.95;13.60;;;;;;;;;;5049629;28;20075;-69
2022/02/02 10:36:11;;;;;;;19.90;11.95;;;;;;;;;;5049942;28;20071;-69
2022/02/02 10:41:43;;;;;;;26.50;14.52;;;;;;;;;;5049034;28;20045;-67
2022/02/02 10:44:18;;;;;;;26.25;12.82;;;;;;;;;;5052604;28;20021;-67
2022/02/02 10:46:55;;;;;;;26.60;12.77;;;;;;;;;;5052760;28;20107;-69
2022/02/02 10:49:28;;;;;;;20.75;12.45;;;;;;;;;;5053173;28;20020;-67
2022/02/02 10:52:02;;;;;;;19.02;11.93;;;;;;;;;;5052433;28;20023;-68
2022/02/02 11:00:11;;;;;;;19.48;11.63;;;;;;;;;;5055260;28;20040;-66
2022/02/02 11:08:08;;;;;;;22.92;11.15;;;;;;;;;;5054044;28;20043;-68
2022/02/02 11:10:35;;;;;;;23.60;11.40;;;;;;;;;;5055011;28;20069;-70
2022/02/02 11:13:02;;;;;;;20.95;10.25;;;;;;;;;;5062644;28;20116;-66
2022/02/02 11:15:31;;;;;;;21.38;11.30;;;;;;;;;;5094327;28;20077;-68
2022/02/02 11:18:00;;;;;;;26.15;14.82;;;;;;;;;;5065753;28;20095;-68
2022/02/02 11:20:27;;;;;;;27.92;13.32;;;;;;;;;;5076917;28;20047;-66
2022/02/02 11:22:54;;;;;;;28.55;15.02;;;;;;;;;;5094605;28;20028;-67
2022/02/02 11:25:23;;;;;;;28.35;13.75;;;;;;;;;;5094757;28;20027;-67
2022/02/02 11:27:51;;;;;;;25.08;12.43;;;;;;;;;;5094316;28;20052;-65
2022/02/02 11:30:23;;;;;;;21.27;12.30;;;;;;;;;;5092979;28;20045;-66
2022/02/02 11:33:00;;;;;;;21.27;11.93;;;;;;;;;;5094963;28;20523;-68
2022/02/02 11:35:33;;;;;;;26.15;12.77;;;;;;;;;;5094728;28;20076;-66
2022/02/02 11:37:59;;;;;;;;;;;;;;;;;;5094586;28;20024;-66
2022/02/02 11:40:27;;;;;;;20.52;10.32;;;;;;;;;;5092738;28;19911;-65
2022/02/02 11:45:34;;;;;;;21.15;11.38;;;;;;;;;;5094044;28;20044;-66
2022/02/02 11:48:07;;;;;;;20.65;12.65;;;;;;;;;;5092979;28;20031;-66
2022/02/02 11:50:56;;;;;;;20.63;11.13;;;;;;;;;;5094717;28;20024;-65
2022/02/02 11:53:40;;;;;;;20.15;10.45;;;;;;;;;;5093813;28;20016;-68
2022/02/02 11:56:07;;;;;;;23.27;13.27;;;;;;;;;;5093985;28;20066;-69
2022/02/02 11:58:34;;;;;;;20.27;11.27;;;;;;;;;;5094220;28;20027;-67
2022/02/02 12:03:55;;;;;;;26.10;15.35;;;;;;;;;;5094082;28;20052;-69
2022/02/02 12:06:31;;;;;;;18.30;10.57;;;;;;;;;;5093879;28;20048;-66
2022/02/02 12:56:21;;;;;;;14.80;8.30;;;;;;;;;;5110508;28;20035;-68
2022/02/02 12:58:49;;;;;;;21.35;11.55;;;;;;;;;;5107514;28;20468;-68
2022/02/02 13:01:19;;;;;;;17.92;9.05;;;;;;;;;;5108385;28;20024;-68
2022/02/02 13:06:21;;;;;;;21.60;11.20;;;;;;;;;;5081687;28;20474;-67
2022/02/02 13:08:48;;;;;;;20.73;12.38;;;;;;;;;;5047779;28;20029;-71
2022/02/02 13:11:21;;;;;;;21.23;10.95;;;;;;;;;;5049854;28;20100;-71
2022/02/02 13:14:27;;;;;;;27.42;14.50;;;;;;;;;;5110294;27;20807;-69
2022/02/02 13:17:02;;;;;;;25.45;13.75;;;;;;;;;;5090532;28;20111;-69
2022/02/02 13:19:33;;;;;;;23.80;14.23;;;;;;;;;;5090180;28;20024;-70
2022/02/02 13:22:08;;;;;;;21.92;11.20;;;;;;;;;;5090726;28;20016;-70
2022/02/02 13:24:34;;;;;;;13.98;9.13;;;;;;;;;;5089000;28;20031;-70
2022/02/02 13:27:13;;;;;;;20.63;12.50;;;;;;;;;;5105750;28;20099;-68
2022/02/02 13:29:46;;;;;;;19.55;9.32;;;;;;;;;;5088512;28;20043;-68
2022/02/02 14:01:31;;;;;;;26.67;13.95;;;;;;;;;;5109474;28;20031;-70
2022/02/02 14:04:38;;;;;;;28.58;13.20;;;;;;;;;;5110279;28;20073;-70
2022/02/02 14:31:17;;;;;;;27.65;15.10;;;;;;;;;;5096319;28;20031;-69
2022/02/02 14:33:45;;;;;;;29.33;16.45;;;;;;;;;;5096163;28;20115;-71
2022/02/02 14:36:14;;;;;;;22.77;13.02;;;;;;;;;;5094526;28;20023;-70
2022/02/02 14:38:52;;;;;;;21.30;12.30;;;;;;;;;;5096043;28;20028;-71
2022/02/02 14:41:33;;;;;;;23.10;11.75;;;;;;;;;;5096686;28;20095;-70
2022/02/02 14:46:38;;;;;;;23.17;12.25;;;;;;;;;;5096071;28;20077;-71
2022/02/02 14:49:29;;;;;;;20.50;10.98;;;;;;;;;;5096061;28;20020;-71
2022/02/02 15:06:39;;;;;;;24.10;12.50;;;;;;;;;;5095560;28;20043;-70
2022/02/02 15:27:59;;;;;;;29.88;15.85;;;;;;;;;;5083773;28;20035;-69
2022/02/02 15:32:58;;;;;;;28.33;16.55;;;;;;;;;;5094744;28;20400;-69
2022/02/02 15:35:26;;;;;;;20.88;13.93;;;;;;;;;;5094609;28;20020;-69
2022/02/02 15:40:30;;;;;;;32.92;17.77;;;;;;;;;;5094530;28;20032;-69
2022/02/02 15:58:59;;;;;;;27.45;16.98;;;;;;;;;;5094617;28;20043;-69
2022/02/02 16:04:14;;;;;;;36.47;22.70;;;;;;;;;;5094438;28;20051;-70
2022/02/02 16:06:40;;;;;;;38.55;22.48;;;;;;;;;;5094430;28;20095;-69
2022/02/02 16:11:40;;;;;;;39.20;20.30;;;;;;;;;;5094244;28;20085;-70
2022/02/02 16:14:13;;;;;;;38.80;22.35;;;;;;;;;;5092746;28;20159;-69
2022/02/02 16:16:57;;;;;;;50.75;26.27;;;;;;;;;;5094346;28;20064;-69
2022/02/02 16:19:30;;;;;;;44.47;22.45;;;;;;;;;;5093997;28;20043;-69
2022/02/02 16:25:05;;;;;;;30.92;17.50;;;;;;;;;;5094042;28;20039;-69
2022/02/02 16:33:32;;;;;;;33.53;19.70;;;;;;;;;;5093881;28;20028;-69
2022/02/02 16:35:55;;;;;;;42.33;20.52;;;;;;;;;;5093378;28;20036;-70
2022/02/02 16:38:24;;;;;;;37.13;18.85;;;;;;;;;;5094278;28;20020;-70
2022/02/02 16:40:52;;;;;;;34.08;19.42;;;;;;;;;;5092623;28;20452;-69
2022/02/02 16:43:20;;;;;;;43.45;23.85;;;;;;;;;;5093428;28;20012;-69
2022/02/02 16:45:50;;;;;;;42.10;24.33;;;;;;;;;;5093761;28;20020;-69
2022/02/02 16:48:17;;;;;;;35.97;22.23;;;;;;;;;;5092223;28;20042;-69
2022/02/02 16:50:47;;;;;;;34.55;14.68;;;;;;;;;;5093402;28;20084;-70
2022/02/02 17:33:33;;;;;;;34.70;17.20;;;;;;;;;;5092751;28;20032;-69
2022/02/02 17:38:49;;;;;;;33.55;16.65;;;;;;;;;;5093321;28;20032;-68
2022/02/02 18:19:00;;;;;;;31.75;15.90;;;;;;;;;;5096709;28;20082;-69
2022/02/02 18:21:30;;;;;;;26.15;13.40;;;;;;;;;;5096373;28;20027;-70
2022/02/02 18:24:05;;;;;;;24.65;12.57;;;;;;;;;;5096735;28;20107;-69
2022/02/02 18:26:38;;;;;;;39.97;20.95;;;;;;;;;;5096777;28;20049;-69
2022/02/02 18:29:21;;;;;;;43.53;19.55;;;;;;;;;;5096115;28;20031;-69
2022/02/02 18:34:44;;;;;;;28.55;16.48;;;;;;;;;;5096181;28;20046;-69
2022/02/02 18:50:11;;;;;;;29.17;15.57;;;;;;;;;;5095613;28;20074;-70
2022/02/02 18:58:10;;;;;;;35.92;18.67;;;;;;;;;;5095912;28;20473;-69
2022/02/02 19:00:55;;;;;;;22.10;13.05;;;;;;;;;;5094391;28;20036;-70
2022/02/02 19:39:51;;;;;;;22.30;12.25;;;;;;;;;;5094923;28;20089;-69
2022/02/02 20:05:46;;;;;;;25.58;12.88;;;;;;;;;;5094655;28;20039;-68
2022/02/02 20:08:39;;;;;;;19.63;11.38;;;;;;;;;;5094064;28;20016;-68
2022/02/02 20:11:08;;;;;;;19.67;11.03;;;;;;;;;;5093055;28;20549;-68
2022/02/02 20:13:36;;;;;;;21.05;10.88;;;;;;;;;;5093653;28;20048;-69
2022/02/02 20:16:05;;;;;;;21.50;11.30;;;;;;;;;;5094124;28;20073;-69
2022/02/02 20:18:36;;;;;;;19.48;11.93;;;;;;;;;;5094232;28;20146;-68
2022/02/02 20:21:06;;;;;;;19.70;11.77;;;;;;;;;;5093990;28;20027;-68
2022/02/02 20:23:33;;;;;;;17.35;9.55;;;;;;;;;;5093647;28;20024;-68
2022/02/02 20:25:59;;;;;;;18.00;10.02;;;;;;;;;;5092822;28;20369;-69
2022/02/02 20:28:26;;;;;;;19.75;11.88;;;;;;;;;;5092511;28;20514;-69
2022/02/02 20:30:52;;;;;;;24.58;11.38;;;;;;;;;;5093122;28;20020;-69
2022/02/02 20:33:18;;;;;;;25.05;11.65;;;;;;;;;;5093307;28;20081;-69
2022/02/02 20:35:44;;;;;;;28.60;12.85;;;;;;;;;;5092215;28;20450;-69
2022/02/02 20:38:12;;;;;;;25.33;13.32;;;;;;;;;;5094222;28;20077;-69
2022/02/02 20:40:38;;;;;;;28.17;12.98;;;;;;;;;;5093986;28;20095;-69
2022/02/02 20:43:11;;;;;;;22.95;11.27;;;;;;;;;;5093445;28;20054;-69
2022/02/02 21:05:07;;;;;;;25.27;13.43;;;;;;;;;;5093478;28;20043;-69
2022/02/02 21:10:18;;;;;;;25.08;11.15;;;;;;;;;;5093253;28;20086;-69
2022/02/02 21:15:32;;;;;;;26.35;11.82;;;;;;;;;;5093156;28;20063;-68
2022/02/02 21:18:06;;;;;;;22.42;11.52;;;;;;;;;;5093110;28;20476;-69
2022/02/02 21:20:58;;;;;;;21.42;10.23;;;;;;;;;;5092534;28;20432;-71
2022/02/02 21:28:32;;;;;;;30.73;13.25;;;;;;;;;;5093376;28;20024;-69
2022/02/02 21:30:58;;;;;;;30.27;14.80;;;;;;;;;;5092972;28;20043;-69
2022/02/02 21:33:25;;;;;;;34.33;15.07;;;;;;;;;;5093551;28;20385;-69
2022/02/02 21:35:54;;;;;;;32.17;14.40;;;;;;;;;;5097308;28;20077;-69
2022/02/02 21:40:55;;;;;;;19.37;9.93;;;;;;;;;;5097399;28;20020;-68
2022/02/02 21:43:22;;;;;;;20.23;9.50;;;;;;;;;;5097448;28;20276;-68
2022/02/02 21:45:49;;;;;;;20.95;10.88;;;;;;;;;;5095570;28;20031;-68
2022/02/02 21:48:15;;;;;;;19.90;9.77;;;;;;;;;;5097261;28;20051;-68
2022/02/02 21:50:47;;;;;;;19.23;9.38;;;;;;;;;;5097531;28;20016;-68
2022/02/02 21:53:14;;;;;;;18.67;9.45;;;;;;;;;;5096802;28;20039;-68
2022/02/02 21:55:40;;;;;;;20.80;10.35;;;;;;;;;;5097054;28;20085;-69
2022/02/02 21:58:07;;;;;;;26.45;10.65;;;;;;;;;;5097382;28;20024;-68
2022/02/02 22:00:33;;;;;;;16.50;10.18;;;;;;;;;;5096543;28;20035;-69
2022/02/02 22:02:59;;;;;;;18.25;8.40;;;;;;;;;;5097219;28;20024;-69
2022/02/02 22:05:26;;;;;;;17.20;8.77;;;;;;;;;;5096882;28;20027;-68
2022/02/02 22:07:52;;;;;;;23.40;9.13;;;;;;;;;;5095082;28;20036;-69
2022/02/02 22:10:20;;;;;;;16.30;8.45;;;;;;;;;;5096713;28;20039;-68
2022/02/02 22:12:46;;;;;;;16.40;7.90;;;;;;;;;;5096376;28;20043;-68
2022/02/02 22:15:18;;;;;;;17.30;9.60;;;;;;;;;;5096239;28;20031;-68
2022/02/02 22:17:46;;;;;;;16.92;8.18;;;;;;;;;;5097240;28;20433;-68
2022/02/02 22:20:14;;;;;;;15.70;7.85;;;;;;;;;;5096099;28;20051;-68
2022/02/02 22:22:41;;;;;;;13.85;7.20;;;;;;;;;;5096609;28;20031;-68
2022/02/02 22:25:08;;;;;;;16.17;8.02;;;;;;;;;;5096597;28;20016;-68
2022/02/02 22:27:35;;;;;;;17.05;9.20;;;;;;;;;;5094867;28;20039;-68
2022/02/02 22:30:03;;;;;;;14.82;7.32;;;;;;;;;;5096410;28;20025;-68
2022/02/02 22:32:30;;;;;;;15.95;7.38;;;;;;;;;;5096239;28;20032;-68
2022/02/02 22:34:56;;;;;;;15.63;7.68;;;;;;;;;;5095885;28;20023;-68
2022/02/02 22:37:23;;;;;;;20.75;8.35;;;;;;;;;;5096481;28;20027;-69
2022/02/02 22:39:51;;;;;;;14.68;7.20;;;;;;;;;;5096213;28;20103;-68
2022/02/02 22:42:20;;;;;;;16.20;7.82;;;;;;;;;;5095923;28;20452;-68
2022/02/02 22:44:47;;;;;;;15.80;8.63;;;;;;;;;;5095574;28;20016;-69
2022/02/02 22:47:15;;;;;;;15.43;8.55;;;;;;;;;;5096301;28;20027;-69
2022/02/02 22:49:45;;;;;;;12.98;7.30;;;;;;;;;;5095467;28;20031;-69
2022/02/02 22:52:12;;;;;;;16.48;7.75;;;;;;;;;;5095841;28;20374;-69
2022/02/02 22:54:40;;;;;;;16.75;7.15;;;;;;;;;;5096077;28;20023;-69
2022/02/02 22:57:07;;;;;;;13.48;7.65;;;;;;;;;;5095535;28;20016;-69
2022/02/02 22:59:35;;;;;;;12.63;7.00;;;;;;;;;;5095811;28;20463;-68
2022/02/02 23:04:54;;;;;;;15.60;7.30;;;;;;;;;;5071805;28;20032;-68
2022/02/02 23:07:20;;;;;;;16.08;7.53;;;;;;;;;;5095617;28;20020;-68
2022/02/02 23:09:49;;;;;;;16.40;8.70;;;;;;;;;;5094143;28;20545;-68
2022/02/02 23:12:15;;;;;;;18.10;7.40;;;;;;;;;;5095464;28;20561;-68
2022/02/02 23:14:44;;;;;;;17.98;9.50;;;;;;;;;;5095579;28;20077;-68
2022/02/02 23:17:10;;;;;;;18.33;9.10;;;;;;;;;;5095198;28;20026;-68
2022/02/02 23:19:40;;;;;;;17.60;8.85;;;;;;;;;;5095443;28;20453;-69
2022/02/02 23:22:09;;;;;;;19.15;9.93;;;;;;;;;;5095701;28;20043;-67
2022/02/02 23:24:38;;;;;;;19.30;10.65;;;;;;;;;;5093603;28;20033;-68
2022/02/02 23:27:08;;;;;;;19.85;10.98;;;;;;;;;;5095254;28;20028;-68
2022/02/02 23:29:42;;;;;;;17.77;10.02;;;;;;;;;;5095211;28;20016;-69
2022/02/02 23:32:09;;;;;;;19.38;10.63;;;;;;;;;;5093469;28;20030;-68
2022/02/02 23:34:35;;;;;;;20.50;10.82;;;;;;;;;;5095380;28;20024;-68
2022/02/02 23:37:02;;;;;;;22.63;11.45;;;;;;;;;;5095186;28;20020;-69
2022/02/02 23:39:28;;;;;;;21.10;11.00;;;;;;;;;;5094536;28;20020;-69
2022/02/02 23:44:30;;;;;;;19.30;10.20;;;;;;;;;;5094798;28;20048;-70
2022/02/02 23:46:58;;;;;;;20.08;10.32;;;;;;;;;;5094861;28;20554;-69
2022/02/02 23:49:34;;;;;;;20.42;10.05;;;;;;;;;;5094908;28;20021;-69
2022/02/02 23:52:01;;;;;;;21.27;11.25;;;;;;;;;;5094472;28;20586;-69
2022/02/02 23:54:32;;;;;;;15.40;9.15;;;;;;;;;;5094734;28;20032;-69
2022/02/02 23:57:12;;;;;;;14.10;8.02;;;;;;;;;;5092591;28;20028;-69
